Aérodrome :
LOGIN :

S'inscrire | Disclaimer

   EN    FR    IT 

 










Légende :    VFR   VFR Marginal   IFR   IFR Intensif   IFR Très Intensif
Visi : 
Plafond : 
>= 8 km
>= 3000ft
5 à 8 km
1000 à 3000 ft
1500m à 5 km
500 à 1000 ft
800 à 1500m
200 à 500 ft
< 800m
< 200 ft
Symboles :   Orages  Brouillard  Fortes neiges  Fortes précipitations  Vent > 20 kt
SIGMETs :   Divers  Orages  Givrage  Turbulence  Onde Orograph.  Cendres Volcan.






- Altitude de l'aérodrome : 336 ft
- Code IATA : GCI


EGJB - Guernsey

DERNIER METAR :
  • 031950Z 03005KT 9999 -RA FEW048 13/12 Q1005

METARs EXPIRÉS :
  • 031850Z 04005KT 010V070 9999 RA FEW048 13/12 Q1005
  • 031820Z 04005KT 9999 -RA FEW048 13/12 Q1005 RERA
  • 031750Z 03005KT 340V060 9999 RA FEW048 13/13 Q1005
  • 031720Z 02005KT 9999 -RA FEW048 14/13 Q1005

TAF TAF EGJB
Valide du 03 à 18h jusqu'au 04 à 03h UTC


031702Z 0318/0403 02012KT 9999 FEW035 SCT045
TEMPO 0318/0321 8000 SHRA BKN045CB
PROB40
TEMPO 0321/0403 5000 SHRA SCT008 BKN020CB
BECMG 0323/0401 9000 -RA BKN010
ATIS : +44 1481 238 957



MET'MAP, la Météo Aéronautique d'un coup d'oeil ! - Copyright ORBIFLY Décembre 2007 - Disclaimer

ORBIFLY MET'MAP TEAM :

Programmation & Développement : Alexandra Zaïnal
Sur une idée originale de : Baudouin d'Aumeries
Assistance à la programmation : Marc-Olivier Méhu
Soutien technique & logistique : Manuel Goepfert

Contact : metmap@orbifly.com




SOURCES & CREDITS :

   NOAA